sensor_id;sensor_type;location;lat;lon;timestamp;P1;durP1;ratioP1;P2;durP2;ratioP2
36189;SDS011;22232;50.914;13.858;2023-04-30T00:01:37;32.67;;;18.30;;
36189;SDS011;22232;50.914;13.858;2023-04-30T00:04:04;28.85;;;19.08;;
36189;SDS011;22232;50.914;13.858;2023-04-30T00:06:32;26.50;;;17.95;;
36189;SDS011;22232;50.914;13.858;2023-04-30T00:09:00;27.05;;;17.42;;
36189;SDS011;22232;50.914;13.858;2023-04-30T00:11:27;25.92;;;15.73;;
36189;SDS011;22232;50.914;13.858;2023-04-30T00:13:55;26.77;;;16.95;;
36189;SDS011;22232;50.914;13.858;2023-04-30T00:16:23;26.77;;;17.80;;
36189;SDS011;22232;50.914;13.858;2023-04-30T00:18:50;29.20;;;18.10;;
36189;SDS011;22232;50.914;13.858;2023-04-30T00:21:18;26.60;;;17.42;;
36189;SDS011;22232;50.914;13.858;2023-04-30T00:23:45;25.75;;;16.42;;
36189;SDS011;22232;50.914;13.858;2023-04-30T00:26:13;28.17;;;16.83;;
36189;SDS011;22232;50.914;13.858;2023-04-30T00:28:45;26.58;;;17.13;;
36189;SDS011;22232;50.914;13.858;2023-04-30T00:31:12;25.45;;;17.05;;
36189;SDS011;22232;50.914;13.858;2023-04-30T00:33:40;25.30;;;16.80;;
36189;SDS011;22232;50.914;13.858;2023-04-30T00:36:07;25.80;;;17.40;;
36189;SDS011;22232;50.914;13.858;2023-04-30T00:38:35;27.50;;;17.05;;
36189;SDS011;22232;50.914;13.858;2023-04-30T00:41:03;25.77;;;16.83;;
36189;SDS011;22232;50.914;13.858;2023-04-30T00:43:30;26.70;;;17.45;;
36189;SDS011;22232;50.914;13.858;2023-04-30T00:45:58;30.27;;;17.40;;
36189;SDS011;22232;50.914;13.858;2023-04-30T00:48:25;25.02;;;15.48;;
36189;SDS011;22232;50.914;13.858;2023-04-30T00:50:53;27.45;;;17.05;;
36189;SDS011;22232;50.914;13.858;2023-04-30T00:53:21;26.65;;;16.33;;
36189;SDS011;22232;50.914;13.858;2023-04-30T00:55:49;24.20;;;15.57;;
36189;SDS011;22232;50.914;13.858;2023-04-30T00:58:17;21.98;;;14.43;;
36189;SDS011;22232;50.914;13.858;2023-04-30T01:00:45;24.30;;;14.45;;
36189;SDS011;22232;50.914;13.858;2023-04-30T01:03:13;18.85;;;12.90;;
36189;SDS011;22232;50.914;13.858;2023-04-30T01:05:41;18.77;;;12.43;;
36189;SDS011;22232;50.914;13.858;2023-04-30T01:08:08;20.50;;;12.18;;
36189;SDS011;22232;50.914;13.858;2023-04-30T01:10:40;20.80;;;12.50;;
36189;SDS011;22232;50.914;13.858;2023-04-30T01:13:16;17.77;;;11.93;;
36189;SDS011;22232;50.914;13.858;2023-04-30T01:16:04;20.88;;;11.52;;
36189;SDS011;22232;50.914;13.858;2023-04-30T01:18:42;20.85;;;11.63;;
36189;SDS011;22232;50.914;13.858;2023-04-30T01:21:15;17.02;;;11.35;;
36189;SDS011;22232;50.914;13.858;2023-04-30T01:29:16;19.88;;;10.88;;
36189;SDS011;22232;50.914;13.858;2023-04-30T01:31:45;15.90;;;10.20;;
36189;SDS011;22232;50.914;13.858;2023-04-30T01:34:13;17.13;;;10.85;;
36189;SDS011;22232;50.914;13.858;2023-04-30T01:50:36;19.05;;;11.75;;
36189;SDS011;22232;50.914;13.858;2023-04-30T01:53:09;22.33;;;12.70;;
36189;SDS011;22232;50.914;13.858;2023-04-30T01:55:44;19.50;;;11.90;;
36189;SDS011;22232;50.914;13.858;2023-04-30T01:58:18;19.48;;;11.38;;
36189;SDS011;22232;50.914;13.858;2023-04-30T02:00:48;19.27;;;12.13;;
36189;SDS011;22232;50.914;13.858;2023-04-30T02:03:16;21.17;;;13.23;;
36189;SDS011;22232;50.914;13.858;2023-04-30T02:05:44;20.65;;;13.20;;
36189;SDS011;22232;50.914;13.858;2023-04-30T02:08:11;23.13;;;14.57;;
36189;SDS011;22232;50.914;13.858;2023-04-30T02:10:39;26.83;;;13.05;;
36189;SDS011;22232;50.914;13.858;2023-04-30T02:13:07;21.80;;;14.05;;
36189;SDS011;22232;50.914;13.858;2023-04-30T02:15:34;28.75;;;14.48;;
36189;SDS011;22232;50.914;13.858;2023-04-30T02:18:02;21.77;;;13.45;;
36189;SDS011;22232;50.914;13.858;2023-04-30T02:20:29;21.98;;;13.88;;
36189;SDS011;22232;50.914;13.858;2023-04-30T02:22:57;19.77;;;13.23;;
36189;SDS011;22232;50.914;13.858;2023-04-30T02:25:24;21.88;;;13.00;;
36189;SDS011;22232;50.914;13.858;2023-04-30T02:27:52;21.70;;;12.95;;
36189;SDS011;22232;50.914;13.858;2023-04-30T02:30:20;22.80;;;12.38;;
36189;SDS011;22232;50.914;13.858;2023-04-30T02:32:47;17.77;;;12.25;;
36189;SDS011;22232;50.914;13.858;2023-04-30T02:35:15;20.55;;;12.82;;
36189;SDS011;22232;50.914;13.858;2023-04-30T02:37:42;17.08;;;11.82;;
36189;SDS011;22232;50.914;13.858;2023-04-30T02:40:10;18.48;;;12.88;;
36189;SDS011;22232;50.914;13.858;2023-04-30T02:42:38;19.27;;;12.95;;
36189;SDS011;22232;50.914;13.858;2023-04-30T02:45:06;20.83;;;11.85;;
36189;SDS011;22232;50.914;13.858;2023-04-30T02:47:33;22.27;;;12.65;;
36189;SDS011;22232;50.914;13.858;2023-04-30T02:50:01;18.92;;;11.90;;
36189;SDS011;22232;50.914;13.858;2023-04-30T02:52:30;17.73;;;11.55;;
36189;SDS011;22232;50.914;13.858;2023-04-30T02:54:58;17.73;;;11.07;;
36189;SDS011;22232;50.914;13.858;2023-04-30T02:57:25;16.48;;;10.50;;
36189;SDS011;22232;50.914;13.858;2023-04-30T02:59:53;17.10;;;10.18;;
36189;SDS011;22232;50.914;13.858;2023-04-30T03:02:21;15.25;;;9.50;;
36189;SDS011;22232;50.914;13.858;2023-04-30T03:04:50;15.68;;;9.32;;
36189;SDS011;22232;50.914;13.858;2023-04-30T03:07:17;17.98;;;9.43;;
36189;SDS011;22232;50.914;13.858;2023-04-30T03:09:45;14.18;;;9.57;;
36189;SDS011;22232;50.914;13.858;2023-04-30T03:12:12;14.15;;;9.95;;
36189;SDS011;22232;50.914;13.858;2023-04-30T03:14:42;20.25;;;10.05;;
36189;SDS011;22232;50.914;13.858;2023-04-30T03:17:10;16.02;;;9.38;;
36189;SDS011;22232;50.914;13.858;2023-04-30T03:19:37;15.32;;;9.63;;
36189;SDS011;22232;50.914;13.858;2023-04-30T03:22:05;19.63;;;9.88;;
36189;SDS011;22232;50.914;13.858;2023-04-30T03:24:32;14.15;;;9.27;;
36189;SDS011;22232;50.914;13.858;2023-04-30T03:27:00;16.23;;;9.77;;
36189;SDS011;22232;50.914;13.858;2023-04-30T03:29:28;15.75;;;8.93;;
36189;SDS011;22232;50.914;13.858;2023-04-30T03:31:55;18.35;;;10.05;;
36189;SDS011;22232;50.914;13.858;2023-04-30T03:34:23;13.52;;;9.07;;
36189;SDS011;22232;50.914;13.858;2023-04-30T03:36:50;16.17;;;9.35;;
36189;SDS011;22232;50.914;13.858;2023-04-30T03:39:18;15.65;;;9.75;;
36189;SDS011;22232;50.914;13.858;2023-04-30T03:41:45;14.70;;;9.18;;
36189;SDS011;22232;50.914;13.858;2023-04-30T03:44:13;14.60;;;9.57;;
36189;SDS011;22232;50.914;13.858;2023-04-30T03:46:42;14.60;;;9.68;;
36189;SDS011;22232;50.914;13.858;2023-04-30T03:49:10;14.82;;;9.57;;
36189;SDS011;22232;50.914;13.858;2023-04-30T03:51:37;19.05;;;9.65;;
36189;SDS011;22232;50.914;13.858;2023-04-30T03:54:08;16.38;;;9.73;;
36189;SDS011;22232;50.914;13.858;2023-04-30T03:56:36;17.45;;;9.98;;
36189;SDS011;22232;50.914;13.858;2023-04-30T03:59:04;19.13;;;10.00;;
36189;SDS011;22232;50.914;13.858;2023-04-30T04:01:32;14.30;;;9.00;;
36189;SDS011;22232;50.914;13.858;2023-04-30T04:04:00;18.67;;;10.18;;
36189;SDS011;22232;50.914;13.858;2023-04-30T04:06:29;14.60;;;9.25;;
36189;SDS011;22232;50.914;13.858;2023-04-30T04:08:58;15.52;;;8.75;;
36189;SDS011;22232;50.914;13.858;2023-04-30T04:11:25;13.88;;;9.27;;
36189;SDS011;22232;50.914;13.858;2023-04-30T04:13:54;14.45;;;8.93;;
36189;SDS011;22232;50.914;13.858;2023-04-30T04:16:22;18.38;;;9.30;;
36189;SDS011;22232;50.914;13.858;2023-04-30T04:18:49;14.70;;;9.02;;
36189;SDS011;22232;50.914;13.858;2023-04-30T04:21:17;18.13;;;8.90;;
36189;SDS011;22232;50.914;13.858;2023-04-30T04:23:45;17.08;;;8.30;;
36189;SDS011;22232;50.914;13.858;2023-04-30T04:26:12;15.23;;;8.77;;
36189;SDS011;22232;50.914;13.858;2023-04-30T04:28:41;15.30;;;9.02;;
36189;SDS011;22232;50.914;13.858;2023-04-30T04:31:08;15.20;;;8.93;;
36189;SDS011;22232;50.914;13.858;2023-04-30T04:33:36;15.57;;;8.65;;
36189;SDS011;22232;50.914;13.858;2023-04-30T04:36:03;15.02;;;9.00;;
36189;SDS011;22232;50.914;13.858;2023-04-30T04:38:31;11.10;;;7.72;;
36189;SDS011;22232;50.914;13.858;2023-04-30T04:41:00;13.52;;;7.88;;
36189;SDS011;22232;50.914;13.858;2023-04-30T04:43:28;13.55;;;7.90;;
36189;SDS011;22232;50.914;13.858;2023-04-30T04:45:55;12.50;;;7.63;;
36189;SDS011;22232;50.914;13.858;2023-04-30T04:48:23;12.38;;;7.43;;
36189;SDS011;22232;50.914;13.858;2023-04-30T04:50:50;11.50;;;7.50;;
36189;SDS011;22232;50.914;13.858;2023-04-30T04:53:18;13.15;;;7.72;;
36189;SDS011;22232;50.914;13.858;2023-04-30T04:55:46;11.35;;;7.70;;
36189;SDS011;22232;50.914;13.858;2023-04-30T04:58:13;13.10;;;8.18;;
36189;SDS011;22232;50.914;13.858;2023-04-30T05:00:41;13.07;;;7.47;;
36189;SDS011;22232;50.914;13.858;2023-04-30T05:03:08;11.40;;;7.55;;
36189;SDS011;22232;50.914;13.858;2023-04-30T05:05:36;14.40;;;7.25;;
36189;SDS011;22232;50.914;13.858;2023-04-30T05:08:04;14.23;;;7.13;;
36189;SDS011;22232;50.914;13.858;2023-04-30T05:10:31;9.20;;;6.68;;
36189;SDS011;22232;50.914;13.858;2023-04-30T05:13:00;13.25;;;6.80;;
36189;SDS011;22232;50.914;13.858;2023-04-30T05:15:28;11.07;;;7.18;;
36189;SDS011;22232;50.914;13.858;2023-04-30T05:17:57;12.68;;;6.00;;
36189;SDS011;22232;50.914;13.858;2023-04-30T05:20:24;11.23;;;5.82;;
36189;SDS011;22232;50.914;13.858;2023-04-30T05:22:52;11.30;;;6.20;;
36189;SDS011;22232;50.914;13.858;2023-04-30T05:25:20;9.13;;;5.00;;
36189;SDS011;22232;50.914;13.858;2023-04-30T05:27:47;9.50;;;5.70;;
36189;SDS011;22232;50.914;13.858;2023-04-30T05:30:15;13.40;;;5.93;;
36189;SDS011;22232;50.914;13.858;2023-04-30T05:32:42;10.40;;;5.68;;
36189;SDS011;22232;50.914;13.858;2023-04-30T05:35:12;8.00;;;4.90;;
36189;SDS011;22232;50.914;13.858;2023-04-30T05:37:39;8.93;;;4.97;;
36189;SDS011;22232;50.914;13.858;2023-04-30T05:40:08;10.20;;;4.72;;
36189;SDS011;22232;50.914;13.858;2023-04-30T05:42:36;9.73;;;4.70;;
36189;SDS011;22232;50.914;13.858;2023-04-30T05:45:04;8.93;;;4.93;;
36189;SDS011;22232;50.914;13.858;2023-04-30T05:47:32;5.80;;;4.75;;
36189;SDS011;22232;50.914;13.858;2023-04-30T05:50:00;9.88;;;5.18;;
36189;SDS011;22232;50.914;13.858;2023-04-30T05:52:27;7.35;;;4.85;;
36189;SDS011;22232;50.914;13.858;2023-04-30T05:54:55;11.90;;;5.13;;
36189;SDS011;22232;50.914;13.858;2023-04-30T05:57:22;8.82;;;5.18;;
36189;SDS011;22232;50.914;13.858;2023-04-30T05:59:50;11.10;;;5.70;;
36189;SDS011;22232;50.914;13.858;2023-04-30T06:02:17;10.75;;;5.45;;
36189;SDS011;22232;50.914;13.858;2023-04-30T06:04:46;9.55;;;5.53;;
36189;SDS011;22232;50.914;13.858;2023-04-30T06:07:14;11.85;;;5.90;;
36189;SDS011;22232;50.914;13.858;2023-04-30T06:09:41;10.80;;;5.32;;
36189;SDS011;22232;50.914;13.858;2023-04-30T06:12:09;9.60;;;4.90;;
36189;SDS011;22232;50.914;13.858;2023-04-30T06:14:36;8.43;;;4.68;;
36189;SDS011;22232;50.914;13.858;2023-04-30T06:17:04;6.95;;;4.95;;
36189;SDS011;22232;50.914;13.858;2023-04-30T06:19:31;10.60;;;5.10;;
36189;SDS011;22232;50.914;13.858;2023-04-30T06:21:59;9.02;;;5.18;;
36189;SDS011;22232;50.914;13.858;2023-04-30T06:24:27;8.07;;;4.53;;
36189;SDS011;22232;50.914;13.858;2023-04-30T06:26:56;7.38;;;4.65;;
36189;SDS011;22232;50.914;13.858;2023-04-30T06:29:23;8.68;;;4.00;;
36189;SDS011;22232;50.914;13.858;2023-04-30T06:31:51;11.68;;;4.60;;
36189;SDS011;22232;50.914;13.858;2023-04-30T06:34:19;11.10;;;4.50;;
36189;SDS011;22232;50.914;13.858;2023-04-30T06:36:47;6.25;;;3.47;;
36189;SDS011;22232;50.914;13.858;2023-04-30T06:39:15;8.57;;;3.78;;
36189;SDS011;22232;50.914;13.858;2023-04-30T06:41:43;7.95;;;4.50;;
36189;SDS011;22232;50.914;13.858;2023-04-30T06:44:10;9.23;;;4.20;;
36189;SDS011;22232;50.914;13.858;2023-04-30T06:46:40;6.75;;;3.90;;
36189;SDS011;22232;50.914;13.858;2023-04-30T06:49:07;7.70;;;3.80;;
36189;SDS011;22232;50.914;13.858;2023-04-30T06:51:35;8.95;;;4.28;;
36189;SDS011;22232;50.914;13.858;2023-04-30T06:54:02;8.65;;;4.72;;
36189;SDS011;22232;50.914;13.858;2023-04-30T06:56:30;7.47;;;4.00;;
36189;SDS011;22232;50.914;13.858;2023-04-30T06:58:57;6.57;;;3.85;;
36189;SDS011;22232;50.914;13.858;2023-04-30T07:01:25;6.50;;;3.58;;
36189;SDS011;22232;50.914;13.858;2023-04-30T07:03:53;9.60;;;4.45;;
36189;SDS011;22232;50.914;13.858;2023-04-30T07:06:21;6.57;;;4.28;;
36189;SDS011;22232;50.914;13.858;2023-04-30T07:08:48;9.05;;;3.67;;
36189;SDS011;22232;50.914;13.858;2023-04-30T07:11:16;6.70;;;4.20;;
36189;SDS011;22232;50.914;13.858;2023-04-30T07:13:43;7.22;;;4.22;;
36189;SDS011;22232;50.914;13.858;2023-04-30T07:16:11;9.70;;;4.20;;
36189;SDS011;22232;50.914;13.858;2023-04-30T07:18:39;7.72;;;4.22;;
36189;SDS011;22232;50.914;13.858;2023-04-30T07:21:07;8.25;;;4.30;;
36189;SDS011;22232;50.914;13.858;2023-04-30T07:23:34;8.38;;;4.00;;
36189;SDS011;22232;50.914;13.858;2023-04-30T07:26:02;10.40;;;4.28;;
36189;SDS011;22232;50.914;13.858;2023-04-30T07:28:29;10.95;;;4.00;;
36189;SDS011;22232;50.914;13.858;2023-04-30T07:30:57;7.18;;;3.92;;
36189;SDS011;22232;50.914;13.858;2023-04-30T07:33:24;7.10;;;4.13;;
36189;SDS011;22232;50.914;13.858;2023-04-30T07:35:52;10.45;;;3.95;;
36189;SDS011;22232;50.914;13.858;2023-04-30T07:38:20;8.73;;;4.22;;
36189;SDS011;22232;50.914;13.858;2023-04-30T07:40:47;10.00;;;4.50;;
36189;SDS011;22232;50.914;13.858;2023-04-30T07:43:15;10.30;;;4.45;;
36189;SDS011;22232;50.914;13.858;2023-04-30T07:45:42;10.75;;;4.40;;
36189;SDS011;22232;50.914;13.858;2023-04-30T07:48:10;10.77;;;4.55;;
36189;SDS011;22232;50.914;13.858;2023-04-30T07:50:38;9.80;;;5.40;;
36189;SDS011;22232;50.914;13.858;2023-04-30T07:53:05;7.20;;;5.15;;
36189;SDS011;22232;50.914;13.858;2023-04-30T07:55:35;7.72;;;4.95;;
36189;SDS011;22232;50.914;13.858;2023-04-30T07:58:02;9.73;;;4.90;;
36189;SDS011;22232;50.914;13.858;2023-04-30T08:00:30;9.65;;;5.13;;
36189;SDS011;22232;50.914;13.858;2023-04-30T08:02:58;6.05;;;4.40;;
36189;SDS011;22232;50.914;13.858;2023-04-30T08:05:27;11.00;;;5.70;;
36189;SDS011;22232;50.914;13.858;2023-04-30T08:07:54;8.90;;;5.10;;
36189;SDS011;22232;50.914;13.858;2023-04-30T08:10:22;11.18;;;5.25;;
36189;SDS011;22232;50.914;13.858;2023-04-30T08:12:49;10.90;;;5.20;;
36189;SDS011;22232;50.914;13.858;2023-04-30T08:15:17;8.70;;;5.03;;
36189;SDS011;22232;50.914;13.858;2023-04-30T08:17:48;7.05;;;4.55;;
36189;SDS011;22232;50.914;13.858;2023-04-30T08:20:17;10.85;;;5.45;;
36189;SDS011;22232;50.914;13.858;2023-04-30T08:22:45;7.55;;;5.53;;
36189;SDS011;22232;50.914;13.858;2023-04-30T08:25:12;8.55;;;5.32;;
36189;SDS011;22232;50.914;13.858;2023-04-30T08:27:40;9.82;;;5.13;;
36189;SDS011;22232;50.914;13.858;2023-04-30T08:30:07;8.68;;;5.03;;
36189;SDS011;22232;50.914;13.858;2023-04-30T08:32:35;6.95;;;4.43;;
36189;SDS011;22232;50.914;13.858;2023-04-30T08:35:04;10.88;;;4.97;;
36189;SDS011;22232;50.914;13.858;2023-04-30T08:37:32;8.00;;;5.30;;
36189;SDS011;22232;50.914;13.858;2023-04-30T08:40:00;11.43;;;5.20;;
36189;SDS011;22232;50.914;13.858;2023-04-30T08:42:31;11.95;;;5.38;;
36189;SDS011;22232;50.914;13.858;2023-04-30T08:45:03;10.50;;;5.18;;
36189;SDS011;22232;50.914;13.858;2023-04-30T08:47:31;13.20;;;4.82;;
36189;SDS011;22232;50.914;13.858;2023-04-30T08:49:59;9.23;;;5.25;;
36189;SDS011;22232;50.914;13.858;2023-04-30T08:52:27;8.55;;;4.78;;
36189;SDS011;22232;50.914;13.858;2023-04-30T08:54:56;7.53;;;4.57;;
36189;SDS011;22232;50.914;13.858;2023-04-30T08:57:24;10.48;;;4.97;;
36189;SDS011;22232;50.914;13.858;2023-04-30T08:59:52;11.52;;;5.22;;
36189;SDS011;22232;50.914;13.858;2023-04-30T09:02:20;7.72;;;4.75;;
36189;SDS011;22232;50.914;13.858;2023-04-30T09:04:48;11.15;;;4.78;;
36189;SDS011;22232;50.914;13.858;2023-04-30T09:07:16;7.88;;;4.78;;
36189;SDS011;22232;50.914;13.858;2023-04-30T09:09:44;8.80;;;5.10;;
36189;SDS011;22232;50.914;13.858;2023-04-30T09:12:16;11.30;;;6.00;;
36189;SDS011;22232;50.914;13.858;2023-04-30T09:14:59;6.05;;;4.10;;
36189;SDS011;22232;50.914;13.858;2023-04-30T09:17:30;10.03;;;5.10;;
36189;SDS011;22232;50.914;13.858;2023-04-30T09:20:05;12.77;;;4.40;;
36189;SDS011;22232;50.914;13.858;2023-04-30T09:22:35;10.43;;;4.97;;
36189;SDS011;22232;50.914;13.858;2023-04-30T09:25:04;11.73;;;5.05;;
36189;SDS011;22232;50.914;13.858;2023-04-30T09:27:33;11.90;;;5.10;;
36189;SDS011;22232;50.914;13.858;2023-04-30T09:30:00;5.80;;;4.22;;
36189;SDS011;22232;50.914;13.858;2023-04-30T09:32:28;9.13;;;4.65;;
36189;SDS011;22232;50.914;13.858;2023-04-30T09:34:56;8.95;;;4.70;;
36189;SDS011;22232;50.914;13.858;2023-04-30T09:37:34;10.20;;;4.80;;
36189;SDS011;22232;50.914;13.858;2023-04-30T09:40:02;7.70;;;4.55;;
36189;SDS011;22232;50.914;13.858;2023-04-30T09:42:30;12.45;;;5.47;;
36189;SDS011;22232;50.914;13.858;2023-04-30T09:44:58;13.55;;;5.60;;
36189;SDS011;22232;50.914;13.858;2023-04-30T09:47:28;9.60;;;4.18;;
36189;SDS011;22232;50.914;13.858;2023-04-30T09:49:57;9.63;;;3.83;;
36189;SDS011;22232;50.914;13.858;2023-04-30T09:52:25;7.43;;;3.60;;
36189;SDS011;22232;50.914;13.858;2023-04-30T09:54:53;9.48;;;4.50;;
36189;SDS011;22232;50.914;13.858;2023-04-30T09:57:22;6.38;;;3.70;;
36189;SDS011;22232;50.914;13.858;2023-04-30T09:59:51;7.30;;;4.05;;
36189;SDS011;22232;50.914;13.858;2023-04-30T10:02:20;6.78;;;3.90;;
36189;SDS011;22232;50.914;13.858;2023-04-30T10:04:52;9.82;;;3.97;;
36189;SDS011;22232;50.914;13.858;2023-04-30T10:07:23;10.55;;;4.90;;
36189;SDS011;22232;50.914;13.858;2023-04-30T10:12:33;10.90;;;4.53;;
36189;SDS011;22232;50.914;13.858;2023-04-30T10:15:23;7.63;;;3.60;;
36189;SDS011;22232;50.914;13.858;2023-04-30T10:18:02;9.07;;;3.58;;
36189;SDS011;22232;50.914;13.858;2023-04-30T10:20:34;12.20;;;3.70;;
36189;SDS011;22232;50.914;13.858;2023-04-30T10:23:05;10.48;;;3.67;;
36189;SDS011;22232;50.914;13.858;2023-04-30T10:25:33;8.05;;;4.22;;
36189;SDS011;22232;50.914;13.858;2023-04-30T10:28:01;8.60;;;3.30;;
36189;SDS011;22232;50.914;13.858;2023-04-30T10:30:30;6.75;;;3.75;;
36189;SDS011;22232;50.914;13.858;2023-04-30T10:35:46;8.00;;;3.53;;
36189;SDS011;22232;50.914;13.858;2023-04-30T10:40:55;10.15;;;3.67;;
36189;SDS011;22232;50.914;13.858;2023-04-30T10:43:24;6.55;;;3.42;;
36189;SDS011;22232;50.914;13.858;2023-04-30T10:45:52;7.57;;;3.38;;
36189;SDS011;22232;50.914;13.858;2023-04-30T10:48:21;5.28;;;3.20;;
36189;SDS011;22232;50.914;13.858;2023-04-30T10:50:57;5.78;;;3.28;;
36189;SDS011;22232;50.914;13.858;2023-04-30T10:53:26;9.77;;;3.92;;
36189;SDS011;22232;50.914;13.858;2023-04-30T10:56:04;8.93;;;3.92;;
36189;SDS011;22232;50.914;13.858;2023-04-30T10:58:36;5.68;;;3.42;;
36189;SDS011;22232;50.914;13.858;2023-04-30T11:01:06;6.90;;;3.42;;
36189;SDS011;22232;50.914;13.858;2023-04-30T11:03:34;5.80;;;3.30;;
36189;SDS011;22232;50.914;13.858;2023-04-30T11:06:07;6.85;;;3.10;;
36189;SDS011;22232;50.914;13.858;2023-04-30T11:08:39;7.40;;;3.30;;
36189;SDS011;22232;50.914;13.858;2023-04-30T11:11:10;5.45;;;3.70;;
36189;SDS011;22232;50.914;13.858;2023-04-30T11:13:44;5.38;;;2.85;;
36189;SDS011;22232;50.914;13.858;2023-04-30T11:16:15;9.68;;;3.55;;
36189;SDS011;22232;50.914;13.858;2023-04-30T11:18:44;8.55;;;3.50;;
36189;SDS011;22232;50.914;13.858;2023-04-30T11:21:12;6.47;;;3.45;;
36189;SDS011;22232;50.914;13.858;2023-04-30T11:23:40;4.07;;;3.13;;
36189;SDS011;22232;50.914;13.858;2023-04-30T11:26:09;9.60;;;3.33;;
36189;SDS011;22232;50.914;13.858;2023-04-30T11:28:37;7.45;;;4.20;;
36189;SDS011;22232;50.914;13.858;2023-04-30T11:31:04;4.70;;;2.88;;
36189;SDS011;22232;50.914;13.858;2023-04-30T11:33:32;8.05;;;3.50;;
36189;SDS011;22232;50.914;13.858;2023-04-30T11:36:01;6.80;;;2.97;;
36189;SDS011;22232;50.914;13.858;2023-04-30T11:38:29;3.83;;;2.67;;
36189;SDS011;22232;50.914;13.858;2023-04-30T11:41:02;6.05;;;3.03;;
36189;SDS011;22232;50.914;13.858;2023-04-30T11:43:30;6.40;;;2.45;;
36189;SDS011;22232;50.914;13.858;2023-04-30T11:48:35;7.63;;;3.10;;
36189;SDS011;22232;50.914;13.858;2023-04-30T11:53:41;6.53;;;3.33;;
36189;SDS011;22232;50.914;13.858;2023-04-30T11:56:09;7.10;;;3.22;;
36189;SDS011;22232;50.914;13.858;2023-04-30T11:58:37;8.57;;;2.95;;
36189;SDS011;22232;50.914;13.858;2023-04-30T12:01:05;13.32;;;4.72;;
36189;SDS011;22232;50.914;13.858;2023-04-30T12:03:45;7.03;;;3.15;;
36189;SDS011;22232;50.914;13.858;2023-04-30T12:06:21;7.65;;;3.10;;
36189;SDS011;22232;50.914;13.858;2023-04-30T12:08:54;6.05;;;3.10;;
36189;SDS011;22232;50.914;13.858;2023-04-30T12:11:27;4.82;;;3.03;;
36189;SDS011;22232;50.914;13.858;2023-04-30T12:16:51;8.75;;;3.28;;
36189;SDS011;22232;50.914;13.858;2023-04-30T12:19:22;6.53;;;2.70;;
36189;SDS011;22232;50.914;13.858;2023-04-30T12:21:51;9.73;;;3.15;;
36189;SDS011;22232;50.914;13.858;2023-04-30T12:24:21;8.43;;;3.10;;
36189;SDS011;22232;50.914;13.858;2023-04-30T12:26:51;6.00;;;2.63;;
36189;SDS011;22232;50.914;13.858;2023-04-30T12:29:20;9.13;;;3.08;;
36189;SDS011;22232;50.914;13.858;2023-04-30T12:31:48;6.20;;;2.67;;
36189;SDS011;22232;50.914;13.858;2023-04-30T12:34:19;4.72;;;2.80;;
36189;SDS011;22232;50.914;13.858;2023-04-30T12:36:46;4.25;;;2.38;;
36189;SDS011;22232;50.914;13.858;2023-04-30T12:39:14;8.68;;;2.70;;
36189;SDS011;22232;50.914;13.858;2023-04-30T12:41:43;6.63;;;3.00;;
36189;SDS011;22232;50.914;13.858;2023-04-30T12:44:15;8.15;;;2.97;;
36189;SDS011;22232;50.914;13.858;2023-04-30T12:46:48;3.63;;;2.30;;
36189;SDS011;22232;50.914;13.858;2023-04-30T12:49:23;5.50;;;3.00;;
36189;SDS011;22232;50.914;13.858;2023-04-30T12:52:13;6.25;;;2.33;;
36189;SDS011;22232;50.914;13.858;2023-04-30T12:54:41;5.53;;;2.65;;
36189;SDS011;22232;50.914;13.858;2023-04-30T12:57:09;7.20;;;2.90;;
36189;SDS011;22232;50.914;13.858;2023-04-30T12:59:54;7.05;;;3.10;;
36189;SDS011;22232;50.914;13.858;2023-04-30T13:02:27;6.78;;;2.70;;
36189;SDS011;22232;50.914;13.858;2023-04-30T13:04:55;6.60;;;2.90;;
36189;SDS011;22232;50.914;13.858;2023-04-30T13:07:23;4.20;;;2.30;;
36189;SDS011;22232;50.914;13.858;2023-04-30T13:09:50;4.72;;;2.92;;
36189;SDS011;22232;50.914;13.858;2023-04-30T13:12:18;5.53;;;2.53;;
36189;SDS011;22232;50.914;13.858;2023-04-30T13:14:46;6.75;;;2.97;;
36189;SDS011;22232;50.914;13.858;2023-04-30T13:17:14;6.07;;;2.50;;
36189;SDS011;22232;50.914;13.858;2023-04-30T13:19:41;6.35;;;3.00;;
36189;SDS011;22232;50.914;13.858;2023-04-30T13:22:09;5.30;;;3.15;;
36189;SDS011;22232;50.914;13.858;2023-04-30T13:24:36;7.13;;;2.90;;
36189;SDS011;22232;50.914;13.858;2023-04-30T13:27:03;7.95;;;2.60;;
36189;SDS011;22232;50.914;13.858;2023-04-30T13:29:31;7.20;;;3.15;;
36189;SDS011;22232;50.914;13.858;2023-04-30T13:31:59;7.35;;;2.80;;
36189;SDS011;22232;50.914;13.858;2023-04-30T13:34:26;7.65;;;3.25;;
36189;SDS011;22232;50.914;13.858;2023-04-30T13:36:54;7.28;;;3.00;;
36189;SDS011;22232;50.914;13.858;2023-04-30T13:39:21;5.22;;;2.78;;
36189;SDS011;22232;50.914;13.858;2023-04-30T13:41:49;7.70;;;2.83;;
36189;SDS011;22232;50.914;13.858;2023-04-30T13:44:16;5.22;;;2.30;;
36189;SDS011;22232;50.914;13.858;2023-04-30T13:46:44;9.07;;;3.05;;
36189;SDS011;22232;50.914;13.858;2023-04-30T13:49:12;7.25;;;2.65;;
36189;SDS011;22232;50.914;13.858;2023-04-30T13:51:39;5.63;;;2.72;;
36189;SDS011;22232;50.914;13.858;2023-04-30T13:54:07;7.75;;;2.97;;
36189;SDS011;22232;50.914;13.858;2023-04-30T13:56:34;7.95;;;2.67;;
36189;SDS011;22232;50.914;13.858;2023-04-30T13:59:02;5.07;;;2.65;;
36189;SDS011;22232;50.914;13.858;2023-04-30T14:01:30;6.18;;;2.70;;
36189;SDS011;22232;50.914;13.858;2023-04-30T14:03:59;4.93;;;2.47;;
36189;SDS011;22232;50.914;13.858;2023-04-30T14:06:26;5.43;;;2.80;;
36189;SDS011;22232;50.914;13.858;2023-04-30T14:08:55;5.40;;;2.65;;
36189;SDS011;22232;50.914;13.858;2023-04-30T14:11:23;4.32;;;2.50;;
36189;SDS011;22232;50.914;13.858;2023-04-30T14:13:50;6.28;;;2.50;;
36189;SDS011;22232;50.914;13.858;2023-04-30T14:16:18;6.55;;;2.67;;
36189;SDS011;22232;50.914;13.858;2023-04-30T14:18:46;4.22;;;2.30;;
36189;SDS011;22232;50.914;13.858;2023-04-30T14:21:14;6.30;;;2.63;;
36189;SDS011;22232;50.914;13.858;2023-04-30T14:23:41;7.82;;;3.20;;
36189;SDS011;22232;50.914;13.858;2023-04-30T14:26:12;5.63;;;2.65;;
36189;SDS011;22232;50.914;13.858;2023-04-30T14:28:40;4.97;;;2.53;;
36189;SDS011;22232;50.914;13.858;2023-04-30T14:31:08;9.70;;;2.85;;
36189;SDS011;22232;50.914;13.858;2023-04-30T14:33:36;6.95;;;2.85;;
36189;SDS011;22232;50.914;13.858;2023-04-30T14:36:04;6.93;;;2.80;;
36189;SDS011;22232;50.914;13.858;2023-04-30T14:38:32;6.00;;;2.30;;
36189;SDS011;22232;50.914;13.858;2023-04-30T14:41:00;6.05;;;2.45;;
36189;SDS011;22232;50.914;13.858;2023-04-30T14:43:27;7.78;;;2.45;;
36189;SDS011;22232;50.914;13.858;2023-04-30T14:45:55;3.42;;;2.20;;
36189;SDS011;22232;50.914;13.858;2023-04-30T14:48:22;3.38;;;2.20;;
36189;SDS011;22232;50.914;13.858;2023-04-30T14:50:50;6.35;;;2.30;;
36189;SDS011;22232;50.914;13.858;2023-04-30T14:53:18;7.25;;;2.72;;
36189;SDS011;22232;50.914;13.858;2023-04-30T14:55:45;5.30;;;2.22;;
36189;SDS011;22232;50.914;13.858;2023-04-30T14:58:13;4.82;;;2.20;;
36189;SDS011;22232;50.914;13.858;2023-04-30T15:00:40;3.38;;;1.70;;
36189;SDS011;22232;50.914;13.858;2023-04-30T15:03:08;3.53;;;2.35;;
36189;SDS011;22232;50.914;13.858;2023-04-30T15:05:35;5.70;;;2.25;;
36189;SDS011;22232;50.914;13.858;2023-04-30T15:08:03;5.93;;;2.65;;
36189;SDS011;22232;50.914;13.858;2023-04-30T15:10:30;4.18;;;2.25;;